createdAt,value
2019-03-13T00:01:03.346Z,1.70
2019-03-13T00:03:32.208Z,2.10
2019-03-13T00:06:00.975Z,1.60
2019-03-13T00:08:29.815Z,1.90
2019-03-13T00:10:58.615Z,1.75
2019-03-13T00:13:27.379Z,2.08
2019-03-13T00:15:56.545Z,1.72
2019-03-13T00:18:25.408Z,2.00
2019-03-13T00:20:54.162Z,1.67
2019-03-13T00:23:23.215Z,1.98
2019-03-13T00:25:52.442Z,1.95
2019-03-13T00:28:21.262Z,1.72
2019-03-13T00:30:50.098Z,2.20
2019-03-13T00:33:19.325Z,1.72
2019-03-13T00:35:48.484Z,1.98
2019-03-13T00:38:17.236Z,2.00
2019-03-13T00:40:46.375Z,1.77
2019-03-13T00:43:15.149Z,2.25
2019-03-13T00:45:44.117Z,1.82
2019-03-13T00:48:12.916Z,1.82
2019-03-13T00:50:41.763Z,2.08
2019-03-13T00:53:10.604Z,2.00
2019-03-13T00:55:39.498Z,1.70
2019-03-13T00:58:08.333Z,1.90
2019-03-13T01:00:38.760Z,1.75
2019-03-13T01:03:09.216Z,1.92
2019-03-13T01:05:56.209Z,1.57
2019-03-13T01:08:25.385Z,1.52
2019-03-13T01:10:54.149Z,2.40
2019-03-13T01:13:23.265Z,2.30
2019-03-13T01:15:52.125Z,2.47
2019-03-13T01:18:20.906Z,2.20
2019-03-13T01:20:49.679Z,2.42
2019-03-13T01:23:18.477Z,2.00
2019-03-13T01:25:47.250Z,2.17
2019-03-13T01:28:16.011Z,2.30
2019-03-13T01:30:52.186Z,1.67
2019-03-13T01:33:21.479Z,1.98
2019-03-13T01:35:57.903Z,1.95
2019-03-13T01:38:26.662Z,2.12
2019-03-13T01:40:55.435Z,2.42
2019-03-13T01:43:24.243Z,2.30
2019-03-13T01:45:53.417Z,1.85
2019-03-13T01:48:22.186Z,2.85
2019-03-13T01:50:51.053Z,2.15
2019-03-13T01:53:20.199Z,2.87
2019-03-13T01:55:49.033Z,2.52
2019-03-13T01:58:17.833Z,2.60
2019-03-13T02:00:46.672Z,2.33
2019-03-13T02:03:15.456Z,2.55
2019-03-13T02:05:44.269Z,2.98
2019-03-13T02:08:13.307Z,2.50
2019-03-13T02:10:42.091Z,2.10
2019-03-13T02:13:10.887Z,2.33
2019-03-13T02:15:39.660Z,2.27
2019-03-13T02:18:08.805Z,1.85
2019-03-13T02:20:37.629Z,1.75
2019-03-13T02:23:06.458Z,2.30
2019-03-13T02:25:35.244Z,1.90
2019-03-13T02:28:04.050Z,2.35
2019-03-13T02:30:33.175Z,2.37
2019-03-13T02:33:01.937Z,2.15
2019-03-13T02:35:31.053Z,2.50
2019-03-13T02:37:59.901Z,2.30
2019-03-13T02:40:28.732Z,2.20
2019-03-13T02:42:57.829Z,2.30
2019-03-13T02:45:26.930Z,2.10
2019-03-13T02:47:55.706Z,2.12
2019-03-13T02:50:24.580Z,2.02
2019-03-13T02:52:53.435Z,2.20
2019-03-13T02:55:22.570Z,2.15
2019-03-13T02:57:51.492Z,2.00
2019-03-13T03:00:38.177Z,2.08
2019-03-13T03:03:08.657Z,2.72
2019-03-13T03:05:37.832Z,2.75
2019-03-13T03:08:06.662Z,2.27
2019-03-13T03:10:35.557Z,3.08
2019-03-13T03:13:04.308Z,1.90
2019-03-13T03:15:33.082Z,2.35
2019-03-13T03:18:01.911Z,2.47
2019-03-13T03:20:30.748Z,2.40
2019-03-13T03:22:59.531Z,2.87
2019-03-13T03:25:28.512Z,2.65
2019-03-13T03:27:57.864Z,2.95
2019-03-13T03:30:26.639Z,2.52
2019-03-13T03:32:55.500Z,2.77
2019-03-13T03:35:24.274Z,2.72
2019-03-13T03:37:53.122Z,2.85
2019-03-13T03:40:23.401Z,2.80
2019-03-13T03:42:52.470Z,3.27
2019-03-13T03:45:21.300Z,3.30
2019-03-13T03:47:50.179Z,2.92
2019-03-13T03:50:19.020Z,3.10
2019-03-13T03:52:48.219Z,3.77
2019-03-13T03:55:17.290Z,2.87
2019-03-13T03:57:46.130Z,4.33
2019-03-13T04:00:19.048Z,3.25
2019-03-13T04:02:47.930Z,3.47
2019-03-13T04:05:16.947Z,3.25
2019-03-13T04:07:45.834Z,3.27
2019-03-13T04:10:15.545Z,3.35
2019-03-13T04:12:44.404Z,3.15
2019-03-13T04:15:14.559Z,3.58
2019-03-13T04:17:43.421Z,3.90
2019-03-13T04:20:14.413Z,3.67
2019-03-13T04:22:43.230Z,3.65
2019-03-13T04:25:26.962Z,3.85
2019-03-13T04:27:55.928Z,4.17
2019-03-13T04:30:25.038Z,3.52
2019-03-13T04:32:53.915Z,3.70
2019-03-13T04:35:22.810Z,4.83
2019-03-13T04:37:51.577Z,4.28
2019-03-13T04:40:20.456Z,3.47
2019-03-13T04:42:49.232Z,3.83
2019-03-13T04:45:17.994Z,3.65
2019-03-13T04:47:46.806Z,3.77
2019-03-13T04:50:16.065Z,3.10
2019-03-13T04:52:45.290Z,3.02
2019-03-13T04:55:15.977Z,2.77
2019-03-13T04:57:44.779Z,3.37
2019-03-13T05:00:18.135Z,3.20
2019-03-13T05:02:47.014Z,3.12
2019-03-13T05:05:44.611Z,3.00
2019-03-13T05:08:16.651Z,3.35
2019-03-13T05:10:45.482Z,3.40
2019-03-13T05:13:14.247Z,2.90
2019-03-13T05:15:43.057Z,3.17
2019-03-13T05:18:11.821Z,3.33
2019-03-13T05:20:40.597Z,3.15
2019-03-13T05:23:09.776Z,3.42
2019-03-13T05:25:38.964Z,3.15
2019-03-13T05:28:07.730Z,3.22
2019-03-13T05:30:36.524Z,2.75
2019-03-13T05:33:05.373Z,3.60
2019-03-13T05:35:34.142Z,3.47
2019-03-13T05:38:03.226Z,2.90
2019-03-13T05:40:32.076Z,3.22
2019-03-13T05:43:00.988Z,3.52
2019-03-13T05:45:29.862Z,3.55
2019-03-13T05:47:58.698Z,3.60
2019-03-13T05:50:27.544Z,2.67
2019-03-13T05:52:56.406Z,2.80
2019-03-13T05:55:25.175Z,3.50
2019-03-13T05:57:53.945Z,3.00
2019-03-13T06:00:24.499Z,4.08
2019-03-13T06:02:53.285Z,3.27
2019-03-13T06:05:22.126Z,3.62
2019-03-13T06:07:50.911Z,3.05
2019-03-13T06:10:19.758Z,3.40
2019-03-13T06:12:48.945Z,3.95
2019-03-13T06:15:17.777Z,3.55
2019-03-13T06:17:46.621Z,4.00
2019-03-13T06:20:16.436Z,3.25
2019-03-13T06:22:45.309Z,3.10
2019-03-13T06:25:14.552Z,2.98
2019-03-13T06:27:46.121Z,3.10
2019-03-13T06:30:18.553Z,3.80
2019-03-13T06:32:47.338Z,3.52
2019-03-13T06:35:16.176Z,4.37
2019-03-13T06:37:45.042Z,3.15
2019-03-13T06:40:18.544Z,3.22
2019-03-13T06:42:47.322Z,3.60
2019-03-13T06:45:16.678Z,3.92
2019-03-13T06:47:45.518Z,3.83
2019-03-13T06:50:24.962Z,3.90
2019-03-13T06:52:53.795Z,2.65
2019-03-13T06:55:22.572Z,3.42
2019-03-13T06:57:51.393Z,3.40
2019-03-13T07:00:28.580Z,3.00
2019-03-13T07:03:15.578Z,2.83
2019-03-13T07:06:02.299Z,3.10
2019-03-13T07:08:35.398Z,3.10
2019-03-13T07:11:07.815Z,3.10
2019-03-13T07:13:41.009Z,3.90
2019-03-13T07:16:14.111Z,3.47
2019-03-13T07:19:01.077Z,3.87
2019-03-13T07:21:37.480Z,4.08
2019-03-13T07:24:10.993Z,3.37
2019-03-13T07:26:41.471Z,3.02
2019-03-13T07:29:27.231Z,3.80
2019-03-13T07:32:03.236Z,3.70
2019-03-13T07:34:33.715Z,4.25
2019-03-13T07:37:10.046Z,3.80
2019-03-13T07:39:46.525Z,4.75
2019-03-13T07:42:16.932Z,3.52
2019-03-13T07:44:47.351Z,3.77
2019-03-13T07:47:34.091Z,3.60
2019-03-13T07:50:07.365Z,3.22
2019-03-13T07:52:54.193Z,3.75
2019-03-13T07:55:24.941Z,3.47
2019-03-13T07:58:07.097Z,3.98
2019-03-13T08:00:37.516Z,4.12
2019-03-13T08:03:13.814Z,3.52
2019-03-13T08:05:46.958Z,3.50
2019-03-13T08:08:23.114Z,2.98
2019-03-13T08:10:54.534Z,2.92
2019-03-13T08:13:37.185Z,3.40
2019-03-13T08:16:10.649Z,2.40
2019-03-13T08:18:43.926Z,2.40
2019-03-13T08:21:29.375Z,3.15
2019-03-13T08:24:15.960Z,2.70
2019-03-13T08:26:58.554Z,2.25
2019-03-13T08:29:34.940Z,2.85
2019-03-13T08:32:05.349Z,3.05
2019-03-13T08:34:38.741Z,3.08
2019-03-13T08:37:12.363Z,3.65
2019-03-13T08:39:45.800Z,3.87
2019-03-13T08:42:34.793Z,3.55
2019-03-13T08:45:06.419Z,3.55
2019-03-13T08:47:42.543Z,3.83
2019-03-13T08:50:15.779Z,2.98
2019-03-13T08:52:46.249Z,4.00
2019-03-13T08:55:19.624Z,3.50
2019-03-13T08:57:58.730Z,3.05
2019-03-13T09:00:38.098Z,3.35
2019-03-13T09:03:24.674Z,3.45
2019-03-13T09:06:11.615Z,3.85
2019-03-13T09:08:58.468Z,3.30
2019-03-13T09:11:44.912Z,4.05
2019-03-13T09:14:18.272Z,3.80
2019-03-13T09:16:48.680Z,3.37
2019-03-13T09:19:37.561Z,3.50
2019-03-13T09:22:08.046Z,3.40
2019-03-13T09:24:41.112Z,3.00
2019-03-13T09:27:20.304Z,3.92
2019-03-13T09:29:50.750Z,2.85
2019-03-13T09:32:24.020Z,3.30
2019-03-13T09:35:10.430Z,4.35
2019-03-13T09:37:56.049Z,4.00
2019-03-13T09:40:26.473Z,3.15
2019-03-13T09:42:59.379Z,4.05
2019-03-13T09:45:44.699Z,3.08
2019-03-13T09:48:24.234Z,3.87
2019-03-13T09:50:57.477Z,3.85
2019-03-13T09:53:40.111Z,3.52
2019-03-13T09:56:10.561Z,4.30
2019-03-13T09:58:57.514Z,4.83
2019-03-13T10:01:30.582Z,5.22
2019-03-13T10:04:00.993Z,4.80
2019-03-13T10:06:31.759Z,4.53
2019-03-13T10:09:02.276Z,3.65
2019-03-13T10:11:50.888Z,3.95
2019-03-13T10:14:21.308Z,4.55
2019-03-13T10:17:11.131Z,4.55
2019-03-13T10:19:46.104Z,4.03
2019-03-13T10:22:19.144Z,4.28
2019-03-13T10:25:01.657Z,3.90
2019-03-13T10:27:44.047Z,3.85
2019-03-13T10:30:15.530Z,4.05
2019-03-13T10:32:48.842Z,4.25
2019-03-13T10:35:19.249Z,4.42
2019-03-13T10:38:13.807Z,5.15
2019-03-13T10:40:37.959Z,4.08
2019-03-13T10:43:17.401Z,5.47
2019-03-13T10:45:53.786Z,4.58
2019-03-13T10:48:24.281Z,4.33
2019-03-13T10:51:03.336Z,4.92
2019-03-13T10:53:33.769Z,4.92
2019-03-13T10:56:13.225Z,5.25
2019-03-13T10:58:46.447Z,4.95
2019-03-13T11:01:28.803Z,4.62
2019-03-13T11:03:59.232Z,4.90
2019-03-13T11:06:29.636Z,5.47
2019-03-13T11:09:00.073Z,5.12
2019-03-13T11:11:33.283Z,5.25
2019-03-13T11:14:14.780Z,4.72
2019-03-13T11:16:44.869Z,5.67
2019-03-13T11:19:15.709Z,5.35
2019-03-13T11:21:52.473Z,5.55
2019-03-13T11:24:28.948Z,5.53
2019-03-13T11:26:59.885Z,5.47
2019-03-13T11:29:36.397Z,5.03
2019-03-13T11:32:07.094Z,6.35
2019-03-13T11:34:37.505Z,5.42
2019-03-13T11:37:23.257Z,6.95
2019-03-13T11:40:11.522Z,5.95
2019-03-13T11:42:44.635Z,6.85
2019-03-13T11:45:32.904Z,5.28
2019-03-13T11:48:06.017Z,6.10
2019-03-13T11:50:45.730Z,6.03
2019-03-13T11:53:19.187Z,6.58
2019-03-13T11:55:58.639Z,7.10
2019-03-13T11:58:45.287Z,6.95
2019-03-13T12:01:18.660Z,5.17
2019-03-13T12:03:52.147Z,6.50
2019-03-13T12:06:31.695Z,5.05
2019-03-13T12:09:18.837Z,6.22
2019-03-13T12:11:49.313Z,5.83
2019-03-13T12:14:34.800Z,5.17
2019-03-13T12:17:14.498Z,4.53
2019-03-13T12:19:47.621Z,5.17
2019-03-13T12:22:29.794Z,4.22
2019-03-13T12:25:06.187Z,5.12
2019-03-13T12:27:51.928Z,4.65
2019-03-13T12:30:38.738Z,4.85
2019-03-13T12:33:11.958Z,4.90
2019-03-13T12:35:42.369Z,5.08
2019-03-13T12:38:25.309Z,4.87
2019-03-13T12:40:55.822Z,4.15
2019-03-13T12:43:26.292Z,3.87
2019-03-13T12:45:56.730Z,4.17
2019-03-13T12:48:42.246Z,4.65
2019-03-13T12:51:15.454Z,4.70
2019-03-13T12:54:00.933Z,4.00
2019-03-13T12:56:34.251Z,3.77
2019-03-13T12:59:04.730Z,4.42
2019-03-13T13:01:35.208Z,3.62
2019-03-13T13:04:17.729Z,3.50
2019-03-13T13:06:51.136Z,4.17
2019-03-13T13:09:21.634Z,4.08
2019-03-13T13:11:55.189Z,3.90
2019-03-13T13:14:41.812Z,4.22
2019-03-13T13:17:12.301Z,3.85
2019-03-13T13:19:41.370Z,3.17
2019-03-13T13:22:10.476Z,4.22
2019-03-13T13:24:39.384Z,3.70
2019-03-13T13:27:08.164Z,3.30
2019-03-13T13:29:37.049Z,3.25
2019-03-13T13:32:05.894Z,4.10
2019-03-13T13:34:34.665Z,3.30
2019-03-13T13:37:03.543Z,4.25
2019-03-13T13:39:32.316Z,2.83
2019-03-13T13:42:01.108Z,3.72
2019-03-13T13:44:29.955Z,3.60
2019-03-13T13:46:58.718Z,4.30
2019-03-13T13:49:27.553Z,3.02
2019-03-13T13:51:56.451Z,3.70
2019-03-13T13:54:25.245Z,3.52
2019-03-13T13:56:54.064Z,3.45
2019-03-13T13:59:22.861Z,3.40
2019-03-13T14:01:51.721Z,3.67
2019-03-13T14:04:20.531Z,3.25
2019-03-13T14:06:49.334Z,3.75
2019-03-13T14:09:18.107Z,3.70
2019-03-13T14:11:46.878Z,3.37
2019-03-13T14:14:15.733Z,3.52
2019-03-13T14:16:44.545Z,3.25
2019-03-13T14:19:13.397Z,2.77
2019-03-13T14:21:42.278Z,2.75
2019-03-13T14:24:11.109Z,3.22
2019-03-13T14:26:39.963Z,2.95
2019-03-13T14:29:08.756Z,1.62
2019-03-13T14:31:37.518Z,2.20
2019-03-13T14:34:06.286Z,2.52
2019-03-13T14:36:35.083Z,2.40
2019-03-13T14:39:06.856Z,2.92
2019-03-13T14:41:35.622Z,2.58
2019-03-13T14:44:04.490Z,2.85
2019-03-13T14:46:33.247Z,3.35
2019-03-13T14:49:02.039Z,3.20
2019-03-13T14:51:30.917Z,2.72
2019-03-13T14:54:00.006Z,2.55
2019-03-13T14:56:28.831Z,2.60
2019-03-13T14:58:57.710Z,2.77
2019-03-13T15:01:26.564Z,2.27
2019-03-13T15:03:55.336Z,2.52
2019-03-13T15:06:24.130Z,2.50
2019-03-13T15:08:52.914Z,2.20
2019-03-13T15:11:21.679Z,2.47
2019-03-13T15:13:50.472Z,2.15
2019-03-13T15:16:19.315Z,2.40
2019-03-13T15:18:48.177Z,2.62
2019-03-13T15:21:17.058Z,2.58
2019-03-13T15:23:45.823Z,2.10
2019-03-13T15:26:14.593Z,2.55
2019-03-13T15:28:43.388Z,2.72
2019-03-13T15:31:12.161Z,2.75
2019-03-13T15:33:41.019Z,3.10
2019-03-13T15:36:10.243Z,3.08
2019-03-13T15:38:39.026Z,3.33
2019-03-13T15:41:07.896Z,3.05
2019-03-13T15:43:36.756Z,2.42
2019-03-13T15:46:05.529Z,3.02
2019-03-13T15:48:34.312Z,2.12
2019-03-13T15:51:03.191Z,3.72
2019-03-13T15:53:32.396Z,2.52
2019-03-13T15:56:01.164Z,2.83
2019-03-13T15:58:29.961Z,1.95
2019-03-13T16:00:58.731Z,4.10
2019-03-13T16:03:27.844Z,2.77
2019-03-13T16:05:56.721Z,2.27
2019-03-13T16:08:25.509Z,3.20
2019-03-13T16:10:54.263Z,2.58
2019-03-13T16:13:23.410Z,3.15
2019-03-13T16:15:52.239Z,3.00
2019-03-13T16:18:21.005Z,3.27
2019-03-13T16:20:51.135Z,3.10
2019-03-13T16:23:19.921Z,3.70
2019-03-13T16:25:48.689Z,4.05
2019-03-13T16:28:17.562Z,3.87
2019-03-13T16:30:47.979Z,3.92
2019-03-13T16:33:16.750Z,4.62
2019-03-13T16:35:45.548Z,3.33
2019-03-13T16:38:14.328Z,3.72
2019-03-13T16:40:43.110Z,3.02
2019-03-13T16:43:11.929Z,3.35
2019-03-13T16:45:40.776Z,3.25
2019-03-13T16:48:09.558Z,3.58
2019-03-13T16:50:38.639Z,3.25
2019-03-13T16:53:07.471Z,2.65
2019-03-13T16:55:36.253Z,2.90
2019-03-13T16:58:05.055Z,2.67
2019-03-13T17:00:34.963Z,2.95
2019-03-13T17:03:03.729Z,2.92
2019-03-13T17:05:32.835Z,2.83
2019-03-13T17:08:02.025Z,2.52
2019-03-13T17:10:30.792Z,3.22
2019-03-13T17:12:59.583Z,3.40
2019-03-13T17:15:28.346Z,3.80
2019-03-13T17:17:57.121Z,3.00
2019-03-13T17:20:36.383Z,3.45
2019-03-13T17:23:05.239Z,3.72
2019-03-13T17:25:34.022Z,3.20
2019-03-13T17:28:03.199Z,2.77
2019-03-13T17:30:33.379Z,3.67
2019-03-13T17:33:02.143Z,3.33
2019-03-13T17:35:31.304Z,3.52
2019-03-13T17:38:00.141Z,3.80
2019-03-13T17:40:34.212Z,3.60
2019-03-13T17:43:03.143Z,3.47
2019-03-13T17:45:31.952Z,2.87
2019-03-13T17:48:00.789Z,3.50
2019-03-13T17:50:29.661Z,3.37
2019-03-13T17:52:58.790Z,3.45
2019-03-13T17:55:28.115Z,4.00
2019-03-13T17:57:56.985Z,3.77
2019-03-13T18:00:30.303Z,3.70
2019-03-13T18:02:59.458Z,3.08
2019-03-13T18:05:28.264Z,3.70
2019-03-13T18:07:57.030Z,3.85
2019-03-13T18:10:28.797Z,3.65
2019-03-13T18:12:57.613Z,2.95
2019-03-13T18:15:26.465Z,3.42
2019-03-13T18:17:55.251Z,3.70
2019-03-13T18:20:24.558Z,3.60
2019-03-13T18:22:53.392Z,3.65
2019-03-13T18:25:22.250Z,3.20
2019-03-13T18:27:51.102Z,3.90
2019-03-13T18:30:29.070Z,3.60
2019-03-13T18:32:57.875Z,3.90
2019-03-13T18:35:26.719Z,3.00
2019-03-13T18:37:55.508Z,3.70
2019-03-13T18:40:25.099Z,4.10
2019-03-13T18:42:53.932Z,3.83
2019-03-13T18:45:30.955Z,3.22
2019-03-13T18:47:59.875Z,4.20
2019-03-13T18:50:28.716Z,3.55
2019-03-13T18:52:57.580Z,3.70
2019-03-13T18:55:29.610Z,2.72
2019-03-13T18:57:58.464Z,3.75
2019-03-13T19:00:34.523Z,3.22
2019-03-13T19:03:03.620Z,3.60
2019-03-13T19:05:36.820Z,3.72
2019-03-13T19:08:06.086Z,3.12
2019-03-13T19:10:34.852Z,3.45
2019-03-13T19:13:03.623Z,3.98
2019-03-13T19:15:32.512Z,3.77
2019-03-13T19:18:01.607Z,3.87
2019-03-13T19:20:30.847Z,3.90
2019-03-13T19:23:00.044Z,3.42
2019-03-13T19:25:28.813Z,3.60
2019-03-13T19:27:57.597Z,3.77
2019-03-13T19:30:33.564Z,3.62
2019-03-13T19:33:02.353Z,3.65
2019-03-13T19:35:31.241Z,3.02
2019-03-13T19:38:06.112Z,3.80
2019-03-13T19:40:34.888Z,2.70
2019-03-13T19:43:03.726Z,2.90
2019-03-13T19:45:44.850Z,4.03
2019-03-13T19:48:13.968Z,3.10
2019-03-13T19:50:42.749Z,3.35
2019-03-13T19:53:13.255Z,3.60
2019-03-13T19:55:42.090Z,4.15
2019-03-13T19:58:10.930Z,3.02
2019-03-13T20:00:39.818Z,3.33
2019-03-13T20:03:11.938Z,3.75
2019-03-13T20:05:45.764Z,3.20
2019-03-13T20:08:13.734Z,3.42
2019-03-13T20:10:42.003Z,3.80
2019-03-13T20:13:10.918Z,3.58
2019-03-13T20:15:39.802Z,3.35
2019-03-13T20:18:08.585Z,3.67
2019-03-13T20:20:37.651Z,3.70
2019-03-13T20:23:11.393Z,3.37
2019-03-13T20:28:08.302Z,3.70
2019-03-13T20:30:38.776Z,3.65
2019-03-13T20:33:07.622Z,3.77
2019-03-13T20:35:37.337Z,3.25
2019-03-13T20:38:06.312Z,3.40
2019-03-13T20:40:35.168Z,3.05
2019-03-13T20:43:04.025Z,3.25
2019-03-13T20:45:32.922Z,3.77
2019-03-13T20:48:01.742Z,3.80
2019-03-13T20:50:37.359Z,3.70
2019-03-13T20:53:01.101Z,3.52
2019-03-13T20:55:29.958Z,3.90
2019-03-13T20:57:58.707Z,3.70
2019-03-13T21:00:34.277Z,3.42
2019-03-13T21:02:59.176Z,3.92
2019-03-13T21:05:28.026Z,3.70
2019-03-13T21:07:56.889Z,3.72
2019-03-13T21:10:25.657Z,4.33
2019-03-13T21:12:54.427Z,3.33
2019-03-13T21:15:24.874Z,3.60
2019-03-13T21:17:53.715Z,4.10
2019-03-13T21:20:22.500Z,3.80
2019-03-13T21:22:51.400Z,3.40
2019-03-13T21:25:26.875Z,3.60
2019-03-13T21:27:55.719Z,3.67
2019-03-13T21:30:28.306Z,4.10
2019-03-13T21:32:57.609Z,3.37
2019-03-13T21:35:26.399Z,3.72
2019-03-13T21:37:55.212Z,2.95
2019-03-13T21:40:27.982Z,3.37
2019-03-13T21:42:56.896Z,3.63
2019-03-13T21:45:25.709Z,3.72
2019-03-13T21:47:54.547Z,3.62
2019-03-13T21:50:23.315Z,3.83
2019-03-13T21:52:52.282Z,3.58
2019-03-13T21:55:21.115Z,3.20
2019-03-13T21:57:51.868Z,3.50
2019-03-13T22:00:24.538Z,3.70
2019-03-13T22:02:53.419Z,3.17
2019-03-13T22:05:26.065Z,3.45
2019-03-13T22:07:53.402Z,3.37
2019-03-13T22:10:22.263Z,4.03
2019-03-13T22:12:51.103Z,3.05
2019-03-13T22:15:23.736Z,3.15
2019-03-13T22:17:52.607Z,3.15
2019-03-13T22:20:21.870Z,3.58
2019-03-13T22:22:50.739Z,3.50
2019-03-13T22:25:19.980Z,3.22
2019-03-13T22:27:48.874Z,3.67
2019-03-13T22:30:24.477Z,2.92
2019-03-13T22:32:53.268Z,3.37
2019-03-13T22:35:22.110Z,3.22
2019-03-13T22:37:50.999Z,3.67
2019-03-13T22:40:19.819Z,3.20
2019-03-13T22:42:48.673Z,3.02
2019-03-13T22:45:19.087Z,2.95
2019-03-13T22:47:47.946Z,2.50
2019-03-13T22:50:24.058Z,3.62
2019-03-13T22:52:52.835Z,4.00
2019-03-13T22:55:21.721Z,3.30
2019-03-13T22:57:50.562Z,3.37
2019-03-13T23:00:53.828Z,3.90
2019-03-13T23:03:24.379Z,3.55
2019-03-13T23:05:53.285Z,3.27
2019-03-13T23:08:22.053Z,2.98
2019-03-13T23:10:51.016Z,3.47
2019-03-13T23:13:19.793Z,3.45
2019-03-13T23:15:49.006Z,2.90
2019-03-13T23:18:18.486Z,3.30
2019-03-13T23:20:47.751Z,3.10
2019-03-13T23:23:16.786Z,2.90
2019-03-13T23:25:45.638Z,2.83
2019-03-13T23:28:14.419Z,2.77
2019-03-13T23:30:43.245Z,3.17
2019-03-13T23:33:12.041Z,3.55
2019-03-13T23:35:40.811Z,3.15
2019-03-13T23:38:09.590Z,3.85
2019-03-13T23:40:38.412Z,3.42
2019-03-13T23:43:07.243Z,3.40
2019-03-13T23:45:36.405Z,3.05
2019-03-13T23:48:05.515Z,3.25
2019-03-13T23:50:34.311Z,4.47
2019-03-13T23:53:03.071Z,3.37
2019-03-13T23:55:31.878Z,3.08
2019-03-13T23:58:00.701Z,2.85
